createdAt,value
2017-07-21T16:20:53.074Z,3.60
2017-07-21T16:23:22.572Z,3.00
2017-07-21T16:25:52.132Z,3.30
2017-07-21T16:28:21.600Z,3.43
2017-07-21T16:30:51.121Z,3.10
2017-07-21T16:33:20.607Z,3.67
2017-07-21T16:35:50.121Z,3.27
2017-07-21T16:38:19.629Z,3.40
2017-07-21T16:40:49.139Z,3.30
2017-07-21T16:43:18.633Z,3.13
2017-07-21T16:45:48.138Z,3.77
2017-07-21T16:48:17.706Z,3.67
2017-07-21T16:50:47.217Z,3.93
2017-07-21T16:53:16.735Z,3.63
2017-07-21T16:55:46.218Z,3.70
2017-07-21T16:58:15.708Z,3.23
2017-07-21T17:00:45.228Z,3.20
2017-07-21T17:03:14.837Z,3.50
2017-07-21T17:05:44.323Z,3.33
2017-07-21T17:08:13.852Z,3.17
2017-07-21T17:10:43.377Z,3.83
2017-07-21T17:13:12.830Z,3.30
2017-07-21T17:15:42.509Z,3.03
2017-07-21T17:18:12.010Z,3.60
2017-07-21T17:20:41.514Z,3.27
2017-07-21T17:23:10.992Z,3.37
2017-07-21T17:25:40.497Z,3.40
2017-07-21T17:28:10.075Z,3.30
2017-07-21T17:30:39.556Z,3.33
2017-07-21T17:33:09.077Z,3.20
2017-07-21T17:35:38.637Z,3.60
2017-07-21T17:38:08.142Z,3.43
2017-07-21T17:40:37.670Z,3.37
2017-07-21T17:43:07.204Z,3.20
2017-07-21T17:45:36.706Z,3.33
2017-07-21T17:48:06.250Z,3.70
2017-07-21T17:50:35.713Z,3.57
2017-07-21T17:53:05.216Z,3.57
2017-07-21T17:55:34.708Z,3.40
2017-07-21T17:58:04.229Z,2.70
2017-07-21T18:00:33.732Z,3.40
2017-07-21T20:39:44.624Z,3.70
2017-07-21T20:42:14.195Z,3.67
2017-07-21T20:44:43.715Z,4.13
2017-07-21T20:47:13.233Z,4.23
2017-07-21T20:49:42.760Z,3.70
2017-07-21T20:52:12.340Z,4.20
2017-07-21T20:54:41.861Z,3.83
2017-07-21T20:57:11.329Z,3.90
2017-07-21T20:59:40.865Z,4.17
2017-07-21T21:02:10.372Z,3.53
2017-07-21T21:04:39.869Z,4.00
2017-07-21T21:07:09.388Z,3.87
2017-07-21T21:10:27.457Z,4.27
2017-07-21T21:12:57.015Z,3.57
2017-07-21T21:15:26.561Z,3.50
2017-07-21T21:17:56.040Z,3.47
2017-07-21T21:20:25.573Z,4.13
2017-07-21T21:22:55.052Z,3.80
2017-07-21T21:25:24.720Z,4.10
2017-07-21T21:27:54.209Z,3.60
2017-07-21T21:30:23.761Z,3.77
2017-07-21T21:32:53.407Z,3.80
2017-07-21T21:35:22.906Z,4.33
2017-07-21T21:37:52.419Z,3.93
2017-07-21T21:40:21.911Z,3.90
2017-07-21T21:42:51.408Z,4.00
2017-07-21T21:45:20.919Z,3.93
2017-07-21T21:47:50.388Z,4.50
2017-07-21T21:50:19.923Z,3.63
2017-07-21T21:52:49.421Z,3.70
2017-07-21T21:55:18.936Z,4.17
2017-07-21T21:57:48.459Z,3.90
2017-07-21T22:00:17.980Z,4.03
2017-07-21T22:02:47.514Z,4.50
2017-07-21T22:05:16.985Z,4.00
2017-07-21T22:07:46.526Z,4.30
2017-07-21T22:10:16.000Z,4.10
2017-07-21T22:12:45.514Z,4.10
2017-07-21T22:15:20.805Z,3.57
2017-07-21T22:17:50.345Z,3.90
2017-07-21T22:20:19.815Z,4.30
2017-07-21T22:22:49.311Z,4.20
2017-07-21T22:25:18.787Z,4.10
2017-07-21T22:27:48.296Z,5.20
2017-07-21T22:30:17.836Z,5.13
2017-07-21T22:32:47.376Z,6.00
